La Puente, CA (91744)

7:44 PM PDT on July 23, 2016 (GMT -0700)
Gregorio Dr | | Change Station
Active Advisory: Excessive Heat Warning

Elev 643 ft 33.99 °N, 117.96 °W | Updated 11 minutes ago

Clear
Clear
78.6 °F
Feels Like 80 °F
N
0.0
Wind Variable Wind from NE

Today
High -- | Low -- °F
--% Chance of Precip.
Yesterday
High -- | Low -- °F
Precip. -- in
Pressure 29.85 in
Visibility 10.0 miles
Clouds Clear
Heat Index 80 °F
Dew Point 64 °F
Humidity 62%
Rainfall 0.00 in
Snow Depth Not available.
5:57 AM 7:58 PM
Waning Gibbous, 80% visible
METAR KPOC 240147Z 25012KT 10SM CLR 29/16 A2985
Pressure 29.85 in
Visibility 10.0 miles
Clouds Clear
Heat Index 80 °F
Dew Point 64 °F
Humidity 62%
Rainfall 0.00 in
Snow Depth Not available.
5:57 AM 7:58 PM
Waning Gibbous, 80% visible
METAR KPOC 240147Z 25012KT 10SM CLR 29/16 A2985

10-Day Weather Forecast

Almanac

Astronomy

Jul. 23, 2016 Rise Set
Actual Time
Civil Twilight
Nautical Twilight
Astronomical Twilight
Moon
Length of Visible Light
Length of Day
Tomorrow will be .
, % of the Moon is Illuminated

Today's Extremes

State Highs State Lows

Community

WunderPhotos

Upload Photos

1,927,004 photos uploaded!

WunderBlog® & News

Nearby

Air Quality

  Air Quality AQ Index Pollutant
Not available.

Snow Depth

Station Depth Elevation

Earthquake Activity

City Distance Mag. Time & Date
Minimum magnitude displayed is 2.5.

Coastal Water Temperatures

Place Temperature

Stations

Nearby Weather Stations

Station Location Temp. Windchill Dew Point Humidity Wind Precip. Elev Updated Type
                   

Watches & Warnings

Excessive Heat Warning
Issued: 1:07 PM PDT Jul. 23, 2016 – National Weather Service

... Excessive heat warning remains in effect until 8 PM PDT this
evening...

* heat... high temperatures between 100 and 110 degrees will be
common today... with heat index values near 105 degrees at
times.

* Impacts... dangerous heat-related illness is possible...
especially for sensitive populations... those conducting
outdoor activities... and people without access to air
conditioning. Electricity demands will be high and power
outages are possible.

Precautionary/preparedness actions...

Never... ever... leave people or pets in enclosed vehicles... even
for a short period of time.

Take extra precautions if you work or spend time outside. When
possible... reschedule strenuous activities to early morning or
evening. Know the signs and symptoms of heat exhaustion and heat
stroke. Wear light weight and loose fitting clothing when
possible and drink plenty of water.

To reduce risk during outdoor work the occupational safety and
health administration recommends scheduling frequent rest breaks
in shaded or air conditioned environments. Anyone overcome by
heat should be moved to a cool and shaded location. Heat stroke
is an emergency - call 911.



Sirard